Time;durP1;ratioP1;P1;durP2;ratioP2;P2;SDS_P1;SDS_P2;PMS_P1;PMS_P2;Temp;Humidity;BMP_temperature;BMP_pressure;BME280_temperature;BME280_humidity;BME280_pressure;Samples;Min_cycle;Max_cycle;Signal;HPM_P1;HPM_P2
2024/03/07 00:03:54;;;;;;;;;;;6.50;99.90;;;;;;8441268;28;19928;-72
2024/03/07 00:07:56;;;;;;;;;;;6.60;99.90;;;;;;8458737;28;19924;-71
2024/03/07 00:11:58;;;;;;;;;;;6.60;99.90;;;;;;8457560;28;19949;-72
2024/03/07 00:15:59;;;;;;;;;;;6.60;99.90;;;;;;8451538;28;19919;-72
2024/03/07 00:20:09;;;;;;;;;;;6.60;99.90;;;;;;8452463;28;19924;-72
2024/03/07 00:24:11;;;;;;;;;;;6.60;99.90;;;;;;8446583;28;19919;-72
2024/03/07 00:28:13;;;;;;;;;;;6.60;99.90;;;;;;8442675;28;19924;-72
2024/03/07 00:32:14;;;;;;;;;;;6.60;99.90;;;;;;8437049;28;19927;-71
2024/03/07 00:36:16;;;;;;;;;;;6.60;99.90;;;;;;8439148;28;20004;-72
2024/03/07 00:40:19;;;;;;;;;;;6.50;99.90;;;;;;8436504;28;19946;-71
2024/03/07 00:44:21;;;;;;;;;;;6.50;99.90;;;;;;8436970;28;20445;-71
2024/03/07 00:48:24;;;;;;;;;;;6.50;99.90;;;;;;8438218;28;19919;-72
2024/03/07 00:52:26;;;;;;;;;;;6.40;99.90;;;;;;8438011;28;19923;-72
2024/03/07 00:56:28;;;;;;;;;;;6.40;99.90;;;;;;8435899;28;19920;-71
2024/03/07 01:00:30;;;;;;;;;;;6.30;99.90;;;;;;8440496;28;19920;-72
2024/03/07 01:04:33;;;;;;;;;;;6.20;99.90;;;;;;8438390;28;19924;-72
2024/03/07 01:08:53;;;;;;;;;;;6.10;99.90;;;;;;8456075;28;19923;-72
2024/03/07 01:12:57;;;;;;;;;;;5.90;99.90;;;;;;8453263;28;19985;-72
2024/03/07 01:16:59;;;;;;;;;;;5.90;99.90;;;;;;8443815;28;19923;-71
2024/03/07 01:21:01;;;;;;;;;;;5.90;99.90;;;;;;8449826;28;19923;-72
2024/03/07 01:25:04;;;;;;;;;;;5.90;99.90;;;;;;8458395;28;19924;-72
2024/03/07 01:29:06;;;;;;;;;;;5.90;99.90;;;;;;8452470;28;19927;-72
2024/03/07 01:33:08;;;;;;;;;;;5.90;99.90;;;;;;8435208;28;19919;-71
2024/03/07 01:37:10;;;;;;;;;;;5.90;99.90;;;;;;8437347;28;19939;-72
2024/03/07 01:41:14;;;;;;;;;;;5.80;99.90;;;;;;8435025;28;19945;-71
2024/03/07 01:45:18;;;;;;;;;;;5.80;99.90;;;;;;8439562;28;19997;-72
2024/03/07 01:49:20;;;;;;;;;;;5.80;99.90;;;;;;8433763;28;19927;-71
2024/03/07 01:53:22;;;;;;;;;;;5.70;99.90;;;;;;8436486;28;19933;-72
2024/03/07 01:57:24;;;;;;;;;;;5.60;99.90;;;;;;8437813;28;19927;-71
2024/03/07 02:01:27;;;;;;;;;;;5.60;99.90;;;;;;8459549;27;19927;-72
2024/03/07 02:05:28;;;;;;;;;;;5.60;99.90;;;;;;8435065;28;19943;-71
2024/03/07 02:09:30;;;;;;;;;;;5.60;99.90;;;;;;8432981;28;20025;-71
2024/03/07 02:13:32;;;;;;;;;;;5.60;99.90;;;;;;8439194;28;19919;-71
2024/03/07 02:17:34;;;;;;;;;;;5.60;99.90;;;;;;8435837;28;19919;-72
2024/03/07 02:21:37;;;;;;;;;;;5.60;99.90;;;;;;8434928;28;19928;-72
2024/03/07 02:25:38;;;;;;;;;;;5.60;99.90;;;;;;8437359;28;19965;-72
2024/03/07 02:29:41;;;;;;;;;;;5.70;99.90;;;;;;8434974;28;19920;-72
2024/03/07 02:33:42;;;;;;;;;;;5.70;99.90;;;;;;8436363;28;20386;-72
2024/03/07 02:37:46;;;;;;;;;;;5.80;99.90;;;;;;8437671;28;19923;-71
2024/03/07 02:41:47;;;;;;;;;;;5.90;99.90;;;;;;8434876;28;20277;-71
2024/03/07 02:46:07;;;;;;;;;;;5.90;99.90;;;;;;8431117;28;19938;-71
2024/03/07 02:50:10;;;;;;;;;;;5.90;99.90;;;;;;8442972;28;19996;-71
2024/03/07 02:54:32;;;;;;;;;;;5.90;99.90;;;;;;8441559;28;19924;-72
2024/03/07 02:58:34;;;;;;;;;;;5.90;99.90;;;;;;8442357;28;19980;-71
2024/03/07 03:02:35;;;;;;;;;;;5.80;99.90;;;;;;8445852;27;19984;-71
2024/03/07 03:06:43;;;;;;;;;;;5.70;99.90;;;;;;8460966;28;19920;-72
2024/03/07 03:10:45;;;;;;;;;;;5.60;99.90;;;;;;8458370;28;20390;-72
2024/03/07 03:14:47;;;;;;;;;;;5.50;99.90;;;;;;8453329;28;20007;-71
2024/03/07 03:18:48;;;;;;;;;;;5.40;99.90;;;;;;8451573;28;19923;-72
2024/03/07 03:22:51;;;;;;;;;;;5.30;99.90;;;;;;8444800;28;19919;-71
2024/03/07 03:27:08;;;;;;;;;;;5.30;99.90;;;;;;8442919;28;20371;-71
2024/03/07 03:36:14;;;;;;;;;;;5.20;99.90;;;;;;8438870;28;19918;-72
2024/03/07 03:40:15;;;;;;;;;;;5.10;99.90;;;;;;8461214;27;19930;-72
2024/03/07 03:44:17;;;;;;;;;;;5.00;99.90;;;;;;8440825;28;19937;-72
2024/03/07 03:48:19;;;;;;;;;;;5.00;99.90;;;;;;8439550;28;20286;-71
2024/03/07 03:52:21;;;;;;;;;;;5.00;99.90;;;;;;8437877;27;20382;-71
2024/03/07 03:56:24;;;;;;;;;;;5.00;99.90;;;;;;8441702;28;19927;-72
2024/03/07 04:00:26;;;;;;;;;;;4.90;99.90;;;;;;8436637;28;20444;-72
2024/03/07 04:04:28;;;;;;;;;;;5.00;99.90;;;;;;8437212;28;19962;-71
2024/03/07 04:08:29;;;;;;;;;;;4.90;99.90;;;;;;8441300;28;19931;-72
2024/03/07 04:12:31;;;;;;;;;;;4.90;99.90;;;;;;8439722;28;19980;-71
2024/03/07 04:16:33;;;;;;;;;;;4.80;99.90;;;;;;8436168;28;20358;-71
2024/03/07 04:20:34;;;;;;;;;;;4.80;99.90;;;;;;8440237;28;19927;-71
2024/03/07 04:24:36;;;;;;;;;;;4.80;99.90;;;;;;8437119;28;19958;-72
2024/03/07 04:38:45;;;;;;;;;;;4.80;99.90;;;;;;8440339;28;19922;-71
2024/03/07 04:42:49;;;;;;;;;;;4.70;99.90;;;;;;8435804;28;19920;-71
2024/03/07 04:46:55;;;;;;;;;;;4.60;99.90;;;;;;8438388;28;19924;-71
2024/03/07 04:50:58;;;;;;;;;;;4.60;99.90;;;;;;8454004;28;20282;-71
2024/03/07 04:55:00;;;;;;;;;;;4.50;99.90;;;;;;8452499;28;19923;-72
2024/03/07 04:59:01;;;;;;;;;;;4.50;99.90;;;;;;8455557;27;19939;-72
2024/03/07 05:03:04;;;;;;;;;;;4.50;99.90;;;;;;8455922;28;20390;-71
2024/03/07 05:07:06;;;;;;;;;;;4.50;99.90;;;;;;8452357;28;20343;-71
2024/03/07 05:11:08;;;;;;;;;;;4.50;99.90;;;;;;8455225;28;20371;-71
2024/03/07 05:15:10;;;;;;;;;;;4.40;99.90;;;;;;8445629;28;20266;-71
2024/03/07 05:19:12;;;;;;;;;;;4.40;99.90;;;;;;8452732;28;19919;-71
2024/03/07 05:23:14;;;;;;;;;;;4.40;99.90;;;;;;8457618;27;19926;-71
2024/03/07 05:27:18;;;;;;;;;;;4.40;99.90;;;;;;8458526;27;19919;-71
2024/03/07 05:31:20;;;;;;;;;;;4.40;99.90;;;;;;8452651;28;19942;-71
2024/03/07 05:35:22;;;;;;;;;;;4.40;99.90;;;;;;8450776;28;19919;-71
2024/03/07 05:39:24;;;;;;;;;;;4.40;99.90;;;;;;8452853;28;20317;-71
2024/03/07 05:43:26;;;;;;;;;;;4.40;99.90;;;;;;8449061;28;19991;-71
2024/03/07 05:47:27;;;;;;;;;;;4.30;99.90;;;;;;8449732;28;20143;-71
2024/03/07 05:51:29;;;;;;;;;;;4.40;99.90;;;;;;8450837;28;20336;-71
2024/03/07 05:55:33;;;;;;;;;;;4.30;99.90;;;;;;8456068;28;19930;-71
2024/03/07 05:59:35;;;;;;;;;;;4.30;99.90;;;;;;8452705;28;20282;-71
2024/03/07 06:03:36;;;;;;;;;;;4.30;99.90;;;;;;8455451;28;19919;-71
2024/03/07 06:07:38;;;;;;;;;;;4.30;99.90;;;;;;8456367;28;19930;-71
2024/03/07 06:11:43;;;;;;;;;;;4.30;99.90;;;;;;8446930;28;19973;-71
2024/03/07 06:15:46;;;;;;;;;;;4.30;99.90;;;;;;8443304;28;19967;-71
2024/03/07 06:19:47;;;;;;;;;;;4.20;99.90;;;;;;8445893;28;19965;-71
2024/03/07 06:23:59;;;;;;;;;;;4.20;99.90;;;;;;8462372;28;19920;-71
2024/03/07 06:28:08;;;;;;;;;;;4.20;99.90;;;;;;8458184;28;20355;-71
2024/03/07 06:32:11;;;;;;;;;;;4.20;99.90;;;;;;8459004;28;19919;-71
2024/03/07 06:36:13;;;;;;;;;;;4.20;99.90;;;;;;8460904;28;19923;-71
2024/03/07 06:40:21;;;;;;;;;;;4.20;99.90;;;;;;8456229;28;19992;-71
2024/03/07 06:44:23;;;;;;;;;;;4.20;99.90;;;;;;8461727;28;19923;-71
2024/03/07 06:48:25;;;;;;;;;;;4.20;99.90;;;;;;8462037;27;19919;-71
2024/03/07 06:52:27;;;;;;;;;;;4.20;99.90;;;;;;8465015;27;19926;-71
2024/03/07 06:56:28;;;;;;;;;;;4.20;99.90;;;;;;8460442;28;20276;-71
2024/03/07 07:00:35;;;;;;;;;;;4.30;99.90;;;;;;8462545;28;20133;-71
2024/03/07 07:04:44;;;;;;;;;;;4.30;99.90;;;;;;8457969;28;19965;-71
2024/03/07 07:13:49;;;;;;;;;;;4.30;99.90;;;;;;8460956;27;19963;-71
2024/03/07 07:22:48;;;;;;;;;;;4.40;99.90;;;;;;8458347;28;19981;-71
2024/03/07 07:26:50;;;;;;;;;;;4.50;99.90;;;;;;8459366;28;19920;-71
2024/03/07 07:30:52;;;;;;;;;;;4.60;99.90;;;;;;8459894;28;19920;-71
2024/03/07 07:34:55;;;;;;;;;;;4.70;99.90;;;;;;8460725;28;19962;-71
2024/03/07 07:38:57;;;;;;;;;;;4.70;99.90;;;;;;8457755;28;20382;-71
2024/03/07 07:43:01;;;;;;;;;;;4.70;99.90;;;;;;8461936;28;19970;-71
2024/03/07 07:47:03;;;;;;;;;;;4.80;99.90;;;;;;8461021;28;19962;-71
2024/03/07 07:51:05;;;;;;;;;;;4.90;99.90;;;;;;8456984;28;19919;-71
2024/03/07 07:55:14;;;;;;;;;;;5.00;99.90;;;;;;8461097;28;20267;-71
2024/03/07 07:59:15;;;;;;;;;;;5.20;99.90;;;;;;8453893;28;19988;-71
2024/03/07 08:08:16;;;;;;;;;;;5.40;99.90;;;;;;8459841;27;19957;-71
2024/03/07 08:12:17;;;;;;;;;;;5.60;99.90;;;;;;8456969;28;20339;-71
2024/03/07 08:16:19;;;;;;;;;;;5.70;99.90;;;;;;8449633;28;19927;-71
2024/03/07 08:20:22;;;;;;;;;;;5.90;99.90;;;;;;8460230;28;19926;-71
2024/03/07 08:24:24;;;;;;;;;;;6.00;99.90;;;;;;8461909;28;19953;-71
2024/03/07 08:28:25;;;;;;;;;;;6.10;99.90;;;;;;8460720;28;19943;-71
2024/03/07 08:32:27;;;;;;;;;;;6.30;99.90;;;;;;8454907;28;19920;-71
2024/03/07 08:36:29;;;;;;;;;;;6.40;99.90;;;;;;8457334;28;19920;-71
2024/03/07 08:40:32;;;;;;;;;;;6.50;99.90;;;;;;8457800;28;19931;-71
2024/03/07 08:44:34;;;;;;;;;;;6.60;99.90;;;;;;8458241;28;19923;-71
2024/03/07 08:48:36;;;;;;;;;;;6.80;99.90;;;;;;8458172;28;20362;-71
2024/03/07 08:52:39;;;;;;;;;;;6.90;99.90;;;;;;8456157;28;20252;-71
2024/03/07 08:56:41;;;;;;;;;;;7.00;99.90;;;;;;8459911;28;19920;-71
2024/03/07 09:00:45;;;;;;;;;;;7.20;99.90;;;;;;8457597;28;19923;-71
2024/03/07 09:04:47;;;;;;;;;;;7.40;99.90;;;;;;8448582;28;19920;-71
2024/03/07 09:08:49;;;;;;;;;;;7.50;99.90;;;;;;8458270;28;20347;-71
2024/03/07 09:12:51;;;;;;;;;;;7.60;99.90;;;;;;8456965;28;19920;-71
2024/03/07 09:16:53;;;;;;;;;;;7.80;99.90;;;;;;8453927;28;19923;-71
2024/03/07 09:20:55;;;;;;;;;;;8.00;99.90;;;;;;8458624;28;19924;-71
2024/03/07 09:24:57;;;;;;;;;;;8.10;99.90;;;;;;8455850;28;19920;-71
2024/03/07 09:29:01;;;;;;;;;;;8.30;99.90;;;;;;8459136;28;19920;-71
2024/03/07 09:33:03;;;;;;;;;;;8.40;99.90;;;;;;8459353;28;19975;-71
2024/03/07 09:37:09;;;;;;;;;;;8.50;99.90;;;;;;8458256;28;20358;-71
2024/03/07 09:41:10;;;;;;;;;;;8.70;99.90;;;;;;8456198;28;19920;-71
2024/03/07 09:45:14;;;;;;;;;;;8.80;99.90;;;;;;8455796;28;19920;-71
2024/03/07 09:49:15;;;;;;;;;;;9.00;99.90;;;;;;8457128;28;20044;-71
2024/03/07 09:53:17;;;;;;;;;;;9.10;99.90;;;;;;8461162;28;19924;-71
2024/03/07 09:57:19;;;;;;;;;;;9.30;99.90;;;;;;8460939;27;19926;-71
2024/03/07 10:01:21;;;;;;;;;;;9.50;99.90;;;;;;8430555;28;19973;-72
2024/03/07 10:05:26;;;;;;;;;;;9.90;99.90;;;;;;8427051;28;20377;-71
2024/03/07 10:09:31;;;;;;;;;;;10.10;99.90;;;;;;8432058;28;19920;-71
2024/03/07 10:13:32;;;;;;;;;;;10.40;99.90;;;;;;8433786;28;19924;-71
2024/03/07 10:17:35;;;;;;;;;;;10.70;99.90;;;;;;8433383;28;19976;-72
2024/03/07 10:26:55;;;;;;;;;;;11.40;99.90;;;;;;8436115;28;19970;-71
2024/03/07 10:30:57;;;;;;;;;;;11.50;99.90;;;;;;8459717;27;19920;-72
2024/03/07 10:34:59;;;;;;;;;;;11.50;99.90;;;;;;8424645;28;19981;-71
2024/03/07 10:39:16;;;;;;;;;;;11.40;99.90;;;;;;8433755;28;19930;-71
2024/03/07 10:43:19;;;;;;;;;;;11.60;99.90;;;;;;8427038;28;20356;-71
2024/03/07 10:52:30;;;;;;;;;;;12.70;99.90;;;;;;8427413;28;19914;-72
2024/03/07 10:56:54;;;;;;;;;;;13.20;99.90;;;;;;8428763;28;19927;-72
2024/03/07 11:00:56;;;;;;;;;;;13.50;99.90;;;;;;8467248;27;19924;-72
2024/03/07 11:04:59;;;;;;;;;;;13.70;99.90;;;;;;8442721;28;19934;-72
2024/03/07 11:09:03;;;;;;;;;;;13.70;99.90;;;;;;8437167;28;19923;-71
2024/03/07 11:13:10;;;;;;;;;;;14.20;99.90;;;;;;8425446;28;19993;-72
2024/03/07 11:17:13;;;;;;;;;;;14.40;99.90;;;;;;8435949;28;19938;-72
2024/03/07 11:21:36;;;;;;;;;;;14.60;99.90;;;;;;8443277;28;20014;-71
2024/03/07 11:25:38;;;;;;;;;;;14.80;99.90;;;;;;8430248;27;20424;-72
2024/03/07 11:29:46;;;;;;;;;;;14.70;99.90;;;;;;8426060;28;19935;-72
2024/03/07 11:34:07;;;;;;;;;;;15.00;99.90;;;;;;8435445;27;19970;-72
2024/03/07 11:38:11;;;;;;;;;;;15.30;99.90;;;;;;8436933;28;19919;-71
2024/03/07 11:42:41;;;;;;;;;;;15.20;99.90;;;;;;8435446;28;19928;-71
2024/03/07 11:46:43;;;;;;;;;;;15.10;99.90;;;;;;8424015;27;19924;-71
2024/03/07 11:50:45;;;;;;;;;;;15.30;99.90;;;;;;8424490;28;19920;-72
2024/03/07 11:54:46;;;;;;;;;;;15.70;99.90;;;;;;8438726;28;19974;-72
2024/03/07 11:58:54;;;;;;;;;;;15.90;99.90;;;;;;8425863;27;19924;-72
2024/03/07 12:02:56;;;;;;;;;;;16.10;99.90;;;;;;8422367;28;19935;-72
2024/03/07 12:07:00;;;;;;;;;;;16.60;99.90;;;;;;8424322;28;19920;-71
2024/03/07 12:11:03;;;;;;;;;;;17.00;99.90;;;;;;8429141;28;20336;-72
2024/03/07 12:15:12;;;;;;;;;;;17.30;99.90;;;;;;8421296;28;20405;-72
2024/03/07 12:19:17;;;;;;;;;;;17.60;99.90;;;;;;8420485;28;19928;-72
2024/03/07 12:23:19;;;;;;;;;;;17.70;99.90;;;;;;8423216;28;19927;-72
2024/03/07 12:27:21;;;;;;;;;;;17.90;99.90;;;;;;8425207;28;20368;-72
2024/03/07 12:31:24;;;;;;;;;;;17.90;99.90;;;;;;8437045;28;20278;-72
2024/03/07 12:35:26;;;;;;;;;;;17.80;99.90;;;;;;8424083;28;19989;-72
2024/03/07 12:39:35;;;;;;;;;;;17.70;99.90;;;;;;8424299;28;19974;-72
2024/03/07 12:43:45;;;;;;;;;;;17.40;99.90;;;;;;8381500;28;19955;-71
2024/03/07 12:52:42;;;;;;;;;;;16.90;99.90;;;;;;8381674;28;19974;-71
2024/03/07 12:56:48;;;;;;;;;;;16.90;99.90;;;;;;8383302;28;19932;-71
2024/03/07 13:00:50;;;;;;;;;;;17.20;99.90;;;;;;8380792;28;19933;-71
2024/03/07 13:04:52;;;;;;;;;;;17.20;99.90;;;;;;8382262;28;19928;-71
2024/03/07 13:08:54;;;;;;;;;;;16.90;99.90;;;;;;8383034;28;20361;-71
2024/03/07 13:12:56;;;;;;;;;;;16.50;99.90;;;;;;8397495;28;20232;-71
2024/03/07 13:17:00;;;;;;;;;;;16.20;99.90;;;;;;8394482;28;19928;-70
2024/03/07 13:21:06;;;;;;;;;;;15.90;99.90;;;;;;8390121;28;20262;-70
2024/03/07 13:25:13;;;;;;;;;;;15.60;99.90;;;;;;8397116;28;20318;-70
2024/03/07 13:29:15;;;;;;;;;;;15.50;99.90;;;;;;8399226;28;19924;-70
2024/03/07 13:33:17;;;;;;;;;;;15.40;99.90;;;;;;8392891;28;19932;-70
2024/03/07 13:37:19;;;;;;;;;;;15.20;99.90;;;;;;8384322;28;19927;-70
2024/03/07 13:41:21;;;;;;;;;;;15.00;99.90;;;;;;8409047;28;19928;-70
2024/03/07 13:45:26;;;;;;;;;;;14.70;99.90;;;;;;8417154;28;19920;-70
2024/03/07 13:49:28;;;;;;;;;;;14.50;99.90;;;;;;8415452;28;19954;-70
2024/03/07 13:53:31;;;;;;;;;;;14.30;99.90;;;;;;8398994;28;19967;-70
2024/03/07 13:57:43;;;;;;;;;;;14.20;99.90;;;;;;8391236;28;19920;-70
2024/03/07 14:02:00;;;;;;;;;;;14.20;99.90;;;;;;8386506;28;19927;-70
2024/03/07 14:06:06;;;;;;;;;;;14.10;99.90;;;;;;8395648;28;20779;-70
2024/03/07 14:10:26;;;;;;;;;;;14.20;99.90;;;;;;8393620;28;19921;-70
2024/03/07 14:14:39;;;;;;;;;;;14.20;99.90;;;;;;8391353;28;19920;-70
2024/03/07 14:18:59;;;;;;;;;;;14.20;99.90;;;;;;8390626;28;19955;-70
2024/03/07 14:23:06;;;;;;;;;;;14.10;99.90;;;;;;8394585;28;19978;-70
2024/03/07 14:27:26;;;;;;;;;;;14.10;99.90;;;;;;8390175;28;19920;-70
2024/03/07 14:31:29;;;;;;;;;;;14.10;99.90;;;;;;8386485;28;19951;-70
2024/03/07 14:35:33;;;;;;;;;;;14.10;99.90;;;;;;8385879;28;19925;-70
2024/03/07 14:39:37;;;;;;;;;;;13.70;99.90;;;;;;8389548;28;20623;-70
2024/03/07 14:43:38;;;;;;;;;;;13.20;99.90;;;;;;8407433;28;19924;-70
2024/03/07 14:47:41;;;;;;;;;;;12.80;99.90;;;;;;8394678;28;19920;-70
2024/03/07 14:51:44;;;;;;;;;;;12.50;99.90;;;;;;8394133;28;20349;-70
2024/03/07 14:55:52;;;;;;;;;;;12.30;99.90;;;;;;8392238;28;19931;-70
2024/03/07 14:59:54;;;;;;;;;;;12.20;99.90;;;;;;8393207;28;19924;-70
2024/03/07 15:03:57;;;;;;;;;;;12.10;99.90;;;;;;8394381;28;20369;-70
2024/03/07 15:08:00;;;;;;;;;;;11.90;99.90;;;;;;8409086;28;19973;-70
2024/03/07 15:12:01;;;;;;;;;;;11.80;99.90;;;;;;8376836;28;19920;-70
2024/03/07 15:16:19;;;;;;;14.13;8.88;;;11.80;99.90;;;;;;8379523;28;19970;-70
2024/03/07 15:20:34;;;;;;;;;;;12.30;99.90;;;;;;8393190;28;20123;-70
2024/03/07 15:24:36;;;;;;;;;;;13.50;99.90;;;;;;8396736;28;19975;-70
2024/03/07 15:28:38;;;;;;;;;;;14.50;99.90;;;;;;8389179;28;20372;-70
2024/03/07 15:32:43;;;;;;;;;;;14.70;99.90;;;;;;8391416;28;19924;-70
2024/03/07 15:36:46;;;;;;;;;;;14.90;99.90;;;;;;8385728;28;19927;-71
2024/03/07 15:40:48;;;;;;;;;;;15.20;99.90;;;;;;8372707;28;19981;-70
2024/03/07 15:44:51;;;;;;;;;;;15.10;99.90;;;;;;8375956;28;19928;-70
2024/03/07 15:48:53;;;;;;;;;;;14.90;99.90;;;;;;8374074;28;20031;-71
2024/03/07 15:52:57;;;;;;;;;;;15.00;99.90;;;;;;8386919;28;19928;-71
2024/03/07 15:57:01;;;;;;;;;;;15.00;99.90;;;;;;8394377;28;19920;-70
2024/03/07 16:01:03;;;;;;;;;;;14.90;99.90;;;;;;8387608;28;20441;-70
2024/03/07 16:05:08;;;;;;;;;;;14.60;99.90;;;;;;8390250;28;19920;-70
2024/03/07 16:09:09;;;;;;;;;;;14.60;99.90;;;;;;8379604;28;19972;-70
2024/03/07 16:13:15;;;;;;;;;;;14.60;99.90;;;;;;8381030;28;19925;-70
2024/03/07 16:17:18;;;;;;;;;;;14.20;99.90;;;;;;8381570;28;19928;-71
2024/03/07 16:21:22;;;;;;;;;;;14.10;99.90;;;;;;8385010;28;20367;-70
2024/03/07 16:25:24;;;;;;;;;;;13.80;99.90;;;;;;8378673;28;19964;-70
2024/03/07 16:29:29;;;;;;;14.23;10.03;;;13.50;99.90;;;;;;8389435;28;19927;-70
2024/03/07 16:33:31;;;;;;;;;;;13.30;99.90;;;;;;8388409;28;19920;-71
2024/03/07 16:37:33;;;;;;;;;;;13.10;99.90;;;;;;8390924;28;19955;-71
2024/03/07 16:41:36;;;;;;;;;;;12.90;99.90;;;;;;8389587;28;20363;-71
2024/03/07 16:45:38;;;;;;;;;;;12.70;99.90;;;;;;8381547;28;19988;-71
2024/03/07 16:49:40;;;;;;;;;;;12.50;99.90;;;;;;8393151;28;19974;-71
2024/03/07 16:53:42;;;;;;;;;;;12.10;99.90;;;;;;8387057;28;20156;-71
2024/03/07 16:57:46;;;;;;;;;;;11.70;99.90;;;;;;8388514;28;19920;-71
2024/03/07 17:06:52;;;;;;;;;;;11.20;99.90;;;;;;8384904;28;19931;-70
2024/03/07 17:10:53;;;;;;;;;;;10.80;99.90;;;;;;8370778;28;19928;-70
2024/03/07 17:19:59;;;;;;;18.30;10.40;;;10.50;99.90;;;;;;8389658;28;19982;-70
2024/03/07 17:24:00;;;;;;;16.80;10.73;;;10.30;99.90;;;;;;8392079;28;20098;-71
2024/03/07 17:28:03;;;;;;;18.13;10.73;;;10.20;99.90;;;;;;8389432;28;20558;-70
2024/03/07 17:32:05;;;;;;;;;;;10.10;99.90;;;;;;8390648;28;20491;-70
2024/03/07 17:36:07;;;;;;;;;;;9.90;99.90;;;;;;8393151;28;19966;-71
2024/03/07 17:40:15;;;;;;;;;;;9.80;99.90;;;;;;8397222;28;19920;-70
2024/03/07 17:44:17;;;;;;;;;;;9.60;99.90;;;;;;8411739;28;19924;-70
2024/03/07 17:48:19;;;;;;;;;;;9.50;99.90;;;;;;8380425;28;20011;-70
2024/03/07 17:52:21;;;;;;;;;;;9.40;99.90;;;;;;8394312;28;19920;-71
2024/03/07 17:56:26;;;;;;;;;;;9.30;99.90;;;;;;8387092;28;20011;-70
2024/03/07 18:00:27;;;;;;;;;;;9.20;99.90;;;;;;8377946;28;20447;-70
2024/03/07 18:04:29;;;;;;;;;;;9.00;99.90;;;;;;8397034;28;19974;-71
2024/03/07 18:08:33;;;;;;;17.73;10.35;;;8.90;99.90;;;;;;8390067;28;20256;-70
2024/03/07 18:12:51;;;;;;;16.80;9.55;;;8.90;99.90;;;;;;8396826;28;20040;-70
2024/03/07 18:16:52;;;;;;;18.40;10.30;;;8.80;99.90;;;;;;8393552;28;20044;-70
2024/03/07 18:20:56;;;;;;;19.08;9.75;;;8.70;99.90;;;;;;8403701;28;20071;-71
2024/03/07 18:24:58;;;;;;;20.00;10.35;;;8.70;99.90;;;;;;8398811;28;20052;-70
2024/03/07 18:29:03;;;;;;;;;;;8.60;99.90;;;;;;8382183;28;20055;-70
2024/03/07 18:33:05;;;;;;;;;;;8.50;99.90;;;;;;8409738;28;20308;-70
2024/03/07 18:37:16;;;;;;;;;;;8.40;99.90;;;;;;8408187;28;20012;-72
2024/03/07 18:41:18;;;;;;;;;;;8.30;99.90;;;;;;8388037;28;20291;-72
2024/03/07 18:45:21;;;;;;;;;;;8.30;99.90;;;;;;8398717;28;19928;-72
2024/03/07 18:49:22;;;;;;;;;;;8.30;99.90;;;;;;8398933;28;19973;-72
2024/03/07 18:58:28;;;;;;;21.17;10.68;;;8.10;99.90;;;;;;8394616;28;19923;-73
2024/03/07 19:02:29;;;;;;;;;;;8.00;99.90;;;;;;8394858;28;20044;-72
2024/03/07 19:06:38;;;;;;;;;;;8.00;99.90;;;;;;8399444;28;19924;-72
2024/03/07 19:10:42;;;;;;;;;;;7.90;99.90;;;;;;8402065;28;19931;-72
2024/03/07 19:14:44;;;;;;;;;;;7.80;99.90;;;;;;8386563;28;20316;-72
2024/03/07 19:18:46;;;;;;;;;;;7.70;99.90;;;;;;8375120;28;20421;-72
2024/03/07 19:22:52;;;;;;;;;;;7.70;99.90;;;;;;8391965;28;20394;-72
2024/03/07 19:26:55;;;;;;;;;;;7.60;99.90;;;;;;8377296;28;19920;-72
2024/03/07 19:30:58;;;;;;;;;;;7.50;99.90;;;;;;8384406;28;19981;-72
2024/03/07 19:35:00;;;;;;;;;;;7.40;99.90;;;;;;8395834;28;20379;-72
2024/03/07 19:39:11;;;;;;;;;;;7.40;99.90;;;;;;8372178;28;19928;-72
2024/03/07 19:43:15;;;;;;;;;;;7.30;99.90;;;;;;8385938;28;19926;-72
2024/03/07 19:47:17;;;;;;;;;;;7.30;99.90;;;;;;8389223;28;19954;-72
2024/03/07 19:51:20;;;;;;;;;;;7.20;99.90;;;;;;8373324;28;19921;-72
2024/03/07 19:55:22;;;;;;;;;;;7.20;99.90;;;;;;8389832;28;19984;-73
2024/03/07 19:59:25;;;;;;;;;;;7.10;99.90;;;;;;8398076;28;20402;-73
2024/03/07 20:03:26;;;;;;;;;;;7.00;99.90;;;;;;8399695;28;20345;-72
2024/03/07 20:07:29;;;;;;;;;;;7.00;99.90;;;;;;8376399;28;19924;-72
2024/03/07 20:11:36;;;;;;;;;;;7.00;99.90;;;;;;8396532;28;19920;-72
2024/03/07 20:15:40;;;;;;;;;;;6.90;99.90;;;;;;8378794;28;19936;-73
2024/03/07 20:19:42;;;;;;;;;;;6.80;99.90;;;;;;8393872;28;19947;-72
2024/03/07 20:23:43;;;;;;;;;;;6.80;99.90;;;;;;8377356;28;19932;-72
2024/03/07 20:27:52;;;;;;;;;;;6.80;99.90;;;;;;8383750;28;20276;-72
2024/03/07 20:31:54;;;;;;;;;;;6.70;99.90;;;;;;8393328;28;19920;-72
2024/03/07 20:35:56;;;;;;;;;;;6.70;99.90;;;;;;8387022;28;19921;-72
2024/03/07 20:39:57;;;;;;;;;;;6.60;99.90;;;;;;8393461;28;20308;-73
2024/03/07 20:44:06;;;;;;;;;;;6.50;99.90;;;;;;8393024;28;19947;-72
2024/03/07 20:48:11;;;;;;;;;;;6.40;99.90;;;;;;8393320;28;20056;-72
2024/03/07 20:52:14;;;;;;;;;;;6.40;99.90;;;;;;8396130;28;20560;-72
2024/03/07 20:56:16;;;;;;;;;;;6.30;99.90;;;;;;8392448;28;19927;-72
2024/03/07 21:00:25;;;;;;;;;;;6.30;99.90;;;;;;8396520;28;19924;-72
2024/03/07 21:04:27;;;;;;;;;;;6.20;99.90;;;;;;8398108;28;19921;-72
2024/03/07 21:08:32;;;;;;;;;;;6.20;99.90;;;;;;8392776;28;19920;-72
2024/03/07 21:12:34;;;;;;;;;;;6.20;99.90;;;;;;8402064;28;19924;-72
2024/03/07 21:16:36;;;;;;;;;;;6.10;99.90;;;;;;8398124;28;19955;-72
2024/03/07 21:20:38;;;;;;;;;;;6.10;99.90;;;;;;8396657;28;19927;-72
2024/03/07 21:24:40;;;;;;;;;;;6.00;99.90;;;;;;8399736;28;19920;-72
2024/03/07 21:28:41;;;;;;;;;;;5.90;99.90;;;;;;8400149;28;20017;-72
2024/03/07 21:37:47;;;;;;;;;;;5.90;99.90;;;;;;8398357;28;19919;-72
2024/03/07 21:41:48;;;;;;;;;;;5.80;99.90;;;;;;8394299;28;19920;-72
2024/03/07 21:45:50;;;;;;;;;;;5.80;99.90;;;;;;8392664;28;19931;-72
2024/03/07 21:49:53;;;;;;;;;;;5.70;99.90;;;;;;8395987;28;19966;-72
2024/03/07 21:53:54;;;;;;;;;;;5.70;99.90;;;;;;8378405;28;20006;-72
2024/03/07 21:57:57;;;;;;;;;;;5.70;99.90;;;;;;8376186;28;19920;-72
2024/03/07 22:01:59;;;;;;;;;;;5.60;99.90;;;;;;8398603;28;19971;-72
2024/03/07 22:06:05;;;;;;;;;;;5.60;99.90;;;;;;8406608;28;20018;-72
2024/03/07 22:10:11;;;;;;;;;;;5.60;99.90;;;;;;8427747;28;20340;-72
2024/03/07 22:14:18;;;;;;;;;;;5.50;99.90;;;;;;8400284;28;19920;-72
2024/03/07 22:18:20;;;;;;;;;;;5.50;99.90;;;;;;8422583;28;19920;-72
2024/03/07 22:22:22;;;;;;;;;;;5.40;99.90;;;;;;8426239;28;19970;-72
2024/03/07 22:26:24;;;;;;;;;;;5.40;99.90;;;;;;8425608;28;19935;-72
2024/03/07 22:30:26;;;;;;;;;;;5.30;99.90;;;;;;8408398;28;19924;-72
2024/03/07 22:34:27;;;;;;;;;;;5.30;99.90;;;;;;8422392;28;19928;-72
2024/03/07 22:38:30;;;;;;;;;;;5.30;99.90;;;;;;8427703;28;19927;-72
2024/03/07 22:42:31;;;;;;;;;;;5.30;99.90;;;;;;8424257;28;20437;-72
2024/03/07 22:46:33;;;;;;;;;;;5.20;99.90;;;;;;8404140;28;19924;-72
2024/03/07 22:50:35;;;;;;;;;;;5.20;99.90;;;;;;8426118;28;19934;-72
2024/03/07 22:54:39;;;;;;;;;;;5.20;99.90;;;;;;8406903;28;19920;-72
2024/03/07 22:58:48;;;;;;;;;;;5.20;99.90;;;;;;8425877;28;19920;-72
2024/03/07 23:02:50;;;;;;;;;;;5.10;99.90;;;;;;8417041;28;19927;-72
2024/03/07 23:06:52;;;;;;;;;;;5.10;99.90;;;;;;8420804;28;19924;-72
2024/03/07 23:10:53;;;;;;;;;;;5.00;99.90;;;;;;8425428;28;19920;-72
2024/03/07 23:19:59;;;;;;;;;;;5.00;99.90;;;;;;8423799;28;19930;-72
2024/03/07 23:24:00;;;;;;;;;;;4.90;99.90;;;;;;8423094;28;19927;-72
2024/03/07 23:28:02;;;;;;;;;;;4.90;99.90;;;;;;8422709;28;19920;-72
2024/03/07 23:32:04;;;;;;;;;;;4.90;99.90;;;;;;8421474;28;19920;-72
2024/03/07 23:36:06;;;;;;;;;;;4.90;99.90;;;;;;8421095;28;19920;-72
2024/03/07 23:40:12;;;;;;;;;;;4.80;99.90;;;;;;8418023;28;20367;-72
2024/03/07 23:44:15;;;;;;;;;;;4.70;99.90;;;;;;8420582;28;19924;-72
2024/03/07 23:48:16;;;;;;;;;;;4.70;99.90;;;;;;8418974;28;19921;-72
2024/03/07 23:52:23;;;;;;;;;;;4.60;99.90;;;;;;8402324;28;20434;-73
2024/03/07 23:56:26;;;;;;;;;;;4.60;99.90;;;;;;8413673;28;19920;-72
